Time;durP1;ratioP1;P1;durP2;ratioP2;P2;SDS_P1;SDS_P2;PMS_P1;PMS_P2;Temp;Humidity;BMP_temperature;BMP_pressure;BME280_temperature;BME280_humidity;BME280_pressure;Samples;Min_cycle;Max_cycle;Signal;HPM_P1;HPM_P2
2023/01/07 00:01:03;;;;;;;4.32;3.83;;;11.00;99.50;;;;;;5103740;28;20100;-58
2023/01/07 00:03:29;;;;;;;4.88;3.67;;;11.00;99.50;;;;;;5086278;28;20051;-58
2023/01/07 00:06:01;;;;;;;4.38;3.67;;;11.00;99.50;;;;;;5086338;28;20032;-58
2023/01/07 00:08:31;;;;;;;4.90;3.78;;;11.00;99.50;;;;;;5086173;28;20081;-58
2023/01/07 00:11:00;;;;;;;4.82;3.42;;;11.00;99.50;;;;;;5103062;28;20115;-58
2023/01/07 00:13:25;;;;;;;4.53;3.80;;;11.00;99.50;;;;;;5103106;28;20028;-58
2023/01/07 00:15:55;;;;;;;4.68;3.95;;;11.00;99.50;;;;;;5087377;28;20414;-58
2023/01/07 00:18:21;;;;;;;4.93;3.70;;;11.00;99.50;;;;;;5102337;28;20447;-58
2023/01/07 00:20:47;;;;;;;4.72;4.05;;;11.00;99.80;;;;;;5102963;28;20044;-58
2023/01/07 00:23:12;;;;;;;5.00;3.92;;;11.00;99.50;;;;;;5102947;28;20017;-58
2023/01/07 00:25:38;;;;;;;4.93;3.85;;;11.00;99.40;;;;;;5102699;28;20040;-58
2023/01/07 00:28:03;;;;;;;4.45;3.85;;;11.10;99.40;;;;;;5102814;28;20055;-58
2023/01/07 00:30:29;;;;;;;4.88;3.75;;;11.00;99.40;;;;;;5087062;28;20062;-58
2023/01/07 00:33:04;;;;;;;5.88;4.47;;;11.00;99.50;;;;;;5087165;28;20028;-58
2023/01/07 00:35:35;;;;;;;7.03;4.28;;;11.00;99.50;;;;;;5101261;28;20101;-59
2023/01/07 00:38:01;;;;;;;6.03;4.03;;;11.00;99.50;;;;;;5102432;28;20036;-58
2023/01/07 00:40:27;;;;;;;4.63;3.97;;;11.00;99.50;;;;;;5085626;28;20438;-58
2023/01/07 00:42:53;;;;;;;6.25;4.32;;;11.00;99.50;;;;;;5085675;28;20078;-58
2023/01/07 00:45:18;;;;;;;4.85;4.18;;;11.00;99.60;;;;;;5086664;28;20040;-58
2023/01/07 00:47:44;;;;;;;5.18;4.68;;;11.00;99.60;;;;;;5086860;28;20047;-58
2023/01/07 00:50:09;;;;;;;5.45;4.75;;;11.00;99.60;;;;;;5086857;28;20048;-58
2023/01/07 00:52:35;;;;;;;7.57;5.07;;;11.00;99.60;;;;;;5084896;28;20088;-58
2023/01/07 00:55:00;;;;;;;5.10;4.60;;;11.00;99.60;;;;;;5085352;28;20025;-58
2023/01/07 00:57:26;;;;;;;6.15;4.53;;;11.00;99.60;;;;;;5102081;28;20516;-58
2023/01/07 00:59:52;;;;;;;5.03;4.47;;;11.00;99.60;;;;;;5086512;28;20021;-58
2023/01/07 01:02:17;;;;;;;6.00;4.82;;;11.00;99.60;;;;;;5085214;28;20033;-58
2023/01/07 01:04:43;;;;;;;6.28;4.68;;;11.00;99.70;;;;;;5086738;28;20032;-58
2023/01/07 01:07:08;;;;;;;7.30;5.10;;;11.00;99.70;;;;;;5086661;28;20379;-58
2023/01/07 01:09:34;;;;;;;6.50;5.18;;;11.00;99.70;;;;;;5086504;28;20029;-58
2023/01/07 01:11:59;;;;;;;5.70;5.10;;;11.00;99.70;;;;;;5084968;28;20385;-58
2023/01/07 01:14:25;;;;;;;6.57;5.28;;;11.00;99.70;;;;;;5086441;28;20076;-58
2023/01/07 01:16:50;;;;;;;6.50;5.07;;;11.00;99.70;;;;;;5085015;28;20040;-58
2023/01/07 01:19:16;;;;;;;7.68;5.07;;;11.00;99.70;;;;;;5084697;28;20025;-58
2023/01/07 01:21:41;;;;;;;6.57;5.07;;;11.00;99.70;;;;;;5086265;28;20099;-58
2023/01/07 01:24:07;;;;;;;7.38;5.00;;;11.00;99.70;;;;;;5086126;28;20055;-58
2023/01/07 01:26:33;;;;;;;6.07;5.20;;;11.00;99.60;;;;;;5101659;28;20075;-58
2023/01/07 01:28:58;;;;;;;7.78;6.03;;;11.00;99.60;;;;;;5101676;28;20056;-58
2023/01/07 01:31:24;;;;;;;6.57;5.85;;;11.00;99.60;;;;;;5085874;28;20043;-58
2023/01/07 01:33:53;;;;;;;7.72;6.40;;;11.00;99.60;;;;;;5084634;28;20025;-58
2023/01/07 01:36:18;;;;;;;8.65;7.15;;;11.00;99.60;;;;;;5085957;28;20048;-58
2023/01/07 01:38:44;;;;;;;8.13;6.55;;;11.00;99.70;;;;;;5101243;28;20031;-58
2023/01/07 01:41:11;;;;;;;8.98;6.53;;;11.00;99.80;;;;;;5085873;28;20029;-58
2023/01/07 01:43:39;;;;;;;7.57;6.30;;;11.00;99.80;;;;;;5084062;28;20476;-58
2023/01/07 01:46:08;;;;;;;7.50;5.70;;;11.00;99.90;;;;;;5100909;28;20032;-58
2023/01/07 01:48:34;;;;;;;6.22;5.30;;;11.00;99.90;;;;;;5100803;28;20025;-58
2023/01/07 01:51:00;;;;;;;6.32;5.13;;;11.00;99.90;;;;;;5101281;28;20090;-58
2023/01/07 01:53:27;;;;;;;7.35;6.28;;;11.00;99.90;;;;;;5084061;28;20058;-58
2023/01/07 01:55:56;;;;;;;7.28;5.75;;;11.00;99.70;;;;;;5084091;28;20048;-58
2023/01/07 01:58:26;;;;;;;7.63;5.82;;;11.00;99.80;;;;;;5084015;28;20029;-58
2023/01/07 02:00:52;;;;;;;7.32;6.25;;;11.10;99.80;;;;;;5101046;28;20055;-58
2023/01/07 02:03:18;;;;;;;7.93;6.50;;;11.10;99.90;;;;;;5084025;28;20096;-58
2023/01/07 02:05:44;;;;;;;8.30;6.55;;;11.00;99.80;;;;;;5083348;28;20029;-58
2023/01/07 02:08:09;;;;;;;7.28;6.53;;;11.00;99.90;;;;;;5101014;28;20077;-58
2023/01/07 02:10:35;;;;;;;7.65;6.07;;;11.00;99.90;;;;;;5085215;28;20048;-58
2023/01/07 02:13:34;;;;;;;7.97;6.43;;;11.10;99.90;;;;;;5100771;28;20028;-58
2023/01/07 02:16:38;;;;;;;7.95;6.43;;;11.10;99.90;;;;;;5083738;28;20089;-58
2023/01/07 02:19:22;;;;;;;8.70;6.00;;;11.10;99.90;;;;;;5084034;28;20033;-58
2023/01/07 02:22:00;;;;;;;7.25;6.07;;;11.00;99.90;;;;;;5085275;28;20113;-57
2023/01/07 02:25:03;;;;;;;8.50;5.97;;;11.00;99.90;;;;;;5100553;28;20365;-58
2023/01/07 02:27:55;;;;;;;6.90;6.03;;;11.10;99.90;;;;;;5085042;28;20032;-58
2023/01/07 02:30:58;;;;;;;6.68;5.70;;;11.10;99.90;;;;;;5083578;28;20040;-58
2023/01/07 02:33:31;;;;;;;7.75;6.45;;;11.00;99.90;;;;;;5084911;28;20103;-58
2023/01/07 02:36:22;;;;;;;7.32;6.30;;;11.00;99.90;;;;;;5099985;28;20085;-58
2023/01/07 02:39:02;;;;;;;6.80;5.68;;;11.00;99.90;;;;;;5084748;28;20028;-58
2023/01/07 02:41:56;;;;;;;6.70;6.00;;;11.00;99.90;;;;;;5100007;28;20025;-58
2023/01/07 02:44:44;;;;;;;6.68;5.75;;;11.00;99.90;;;;;;5084841;28;20024;-58
2023/01/07 02:47:20;;;;;;;6.32;5.50;;;11.00;99.90;;;;;;5083496;28;20119;-58
2023/01/07 02:49:46;;;;;;;6.72;5.20;;;11.00;99.90;;;;;;5100014;28;20024;-58
2023/01/07 02:52:26;;;;;;;5.93;5.32;;;11.10;99.90;;;;;;5083439;28;20043;-58
2023/01/07 02:54:56;;;;;;;7.95;6.10;;;11.00;99.90;;;;;;5100405;28;20021;-58
2023/01/07 02:57:27;;;;;;;8.25;7.35;;;11.00;99.90;;;;;;5083417;28;20037;-58
2023/01/07 03:00:08;;;;;;;9.43;7.72;;;11.00;99.90;;;;;;5084750;28;20025;-58
2023/01/07 03:02:42;;;;;;;9.40;7.53;;;11.00;99.90;;;;;;5084709;28;20124;-58
2023/01/07 03:05:29;;;;;;;9.23;8.15;;;11.00;99.90;;;;;;5084667;28;20017;-58
2023/01/07 03:08:04;;;;;;;8.68;7.10;;;11.00;99.90;;;;;;5083061;28;20029;-58
2023/01/07 03:10:40;;;;;;;7.47;6.45;;;11.00;99.90;;;;;;5100140;28;20063;-58
2023/01/07 03:13:07;;;;;;;8.10;6.65;;;11.00;99.90;;;;;;5083235;28;20085;-58
2023/01/07 03:15:41;;;;;;;7.05;6.35;;;11.10;99.90;;;;;;5084253;28;20036;-58
2023/01/07 03:18:14;;;;;;;8.70;6.32;;;11.00;99.90;;;;;;5087106;28;20021;-58
2023/01/07 03:20:40;;;;;;;7.78;6.05;;;11.10;99.90;;;;;;5087092;28;20039;-58
2023/01/07 03:23:08;;;;;;;9.68;7.20;;;11.10;99.90;;;;;;5087265;28;20025;-58
2023/01/07 03:25:36;;;;;;;9.85;7.72;;;11.10;99.90;;;;;;5087003;28;20029;-58
2023/01/07 03:28:01;;;;;;;9.13;8.18;;;11.10;99.90;;;;;;5087177;28;20039;-58
2023/01/07 03:30:27;;;;;;;9.70;7.43;;;11.10;99.90;;;;;;5087010;28;20036;-58
2023/01/07 03:32:59;;;;;;;8.85;7.53;;;11.00;99.90;;;;;;5103817;28;20108;-58
2023/01/07 03:35:25;;;;;;;8.57;7.68;;;11.10;99.90;;;;;;5086815;28;20105;-58
2023/01/07 03:37:50;;;;;;;10.95;7.85;;;11.10;99.90;;;;;;5086856;28;20051;-58
2023/01/07 03:40:16;;;;;;;8.88;7.78;;;11.10;99.90;;;;;;5086922;28;20349;-58
2023/01/07 03:42:44;;;;;;;9.15;7.68;;;11.00;99.90;;;;;;5086955;28;20082;-58
2023/01/07 03:45:18;;;;;;;8.05;7.13;;;11.10;99.90;;;;;;5086757;28;20025;-57
2023/01/07 03:47:46;;;;;;;9.13;7.50;;;11.00;99.80;;;;;;5086626;28;20029;-58
2023/01/07 03:50:11;;;;;;;8.32;7.20;;;11.00;99.80;;;;;;5086520;28;20012;-58
2023/01/07 03:52:37;;;;;;;7.95;6.75;;;11.00;99.70;;;;;;5086507;28;20025;-58
2023/01/07 03:55:03;;;;;;;8.82;7.93;;;11.00;99.70;;;;;;5103604;28;20133;-58
2023/01/07 03:57:31;;;;;;;8.05;7.25;;;11.00;99.70;;;;;;5103400;28;20067;-58
2023/01/07 03:59:56;;;;;;;9.35;7.68;;;11.00;99.90;;;;;;5086749;28;20017;-58
2023/01/07 04:02:22;;;;;;;8.10;7.20;;;11.00;99.70;;;;;;5103796;28;20025;-58
2023/01/07 04:04:48;;;;;;;9.93;8.02;;;11.30;99.70;;;;;;5087940;28;20021;-58
2023/01/07 04:07:13;;;;;;;8.70;7.80;;;11.00;99.70;;;;;;5088107;28;20028;-58
2023/01/07 04:09:39;;;;;;;8.05;7.00;;;11.00;99.70;;;;;;5086774;28;20504;-58
2023/01/07 04:12:05;;;;;;;8.77;7.30;;;11.00;99.60;;;;;;5086521;28;20035;-58
2023/01/07 04:14:30;;;;;;;8.73;7.78;;;11.00;99.60;;;;;;5103790;28;20056;-58
2023/01/07 04:16:56;;;;;;;7.85;7.05;;;11.00;99.60;;;;;;5086196;28;20107;-58
2023/01/07 04:19:21;;;;;;;9.27;7.38;;;11.00;99.60;;;;;;5086492;28;20041;-58
2023/01/07 04:21:47;;;;;;;8.45;6.65;;;11.00;99.60;;;;;;5087656;28;20025;-57
2023/01/07 04:24:12;;;;;;;8.85;6.85;;;10.90;99.60;;;;;;5087862;28;20020;-58
2023/01/07 04:26:38;;;;;;;7.63;6.90;;;11.00;99.50;;;;;;5086048;28;20142;-58
2023/01/07 04:29:04;;;;;;;7.72;6.80;;;10.90;99.50;;;;;;5085787;28;20040;-58
2023/01/07 04:31:29;;;;;;;6.90;6.30;;;10.90;99.50;;;;;;5086005;28;20475;-58
2023/01/07 04:33:55;;;;;;;8.38;7.00;;;10.90;99.40;;;;;;5087525;28;20078;-58
2023/01/07 04:36:20;;;;;;;7.68;6.65;;;10.90;99.40;;;;;;5087121;28;20058;-58
2023/01/07 04:38:46;;;;;;;7.18;6.45;;;10.90;99.40;;;;;;5086047;28;20043;-58
2023/01/07 04:41:11;;;;;;;6.55;5.72;;;10.90;99.70;;;;;;5087217;28;20358;-58
2023/01/07 04:43:37;;;;;;;8.38;6.28;;;10.90;99.40;;;;;;5087146;28;20484;-58
2023/01/07 04:46:03;;;;;;;7.95;6.40;;;10.90;99.10;;;;;;5102662;28;20028;-58
2023/01/07 04:48:28;;;;;;;6.45;5.85;;;10.90;99.10;;;;;;5102727;28;20029;-58
2023/01/07 04:50:54;;;;;;;6.95;6.25;;;10.90;99.10;;;;;;5087218;28;20028;-58
2023/01/07 04:53:20;;;;;;;6.47;5.65;;;10.90;99.10;;;;;;5102534;28;20029;-58
2023/01/07 04:55:45;;;;;;;6.68;5.90;;;10.90;99.00;;;;;;5102539;28;20029;-58
2023/01/07 04:58:11;;;;;;;7.47;6.20;;;10.90;98.90;;;;;;5102591;28;20028;-58
2023/01/07 05:00:36;;;;;;;6.80;5.85;;;10.90;98.90;;;;;;5102366;28;20016;-58
2023/01/07 05:03:02;;;;;;;6.28;5.47;;;10.90;98.90;;;;;;5102313;28;20035;-58
2023/01/07 05:05:27;;;;;;;6.75;5.35;;;10.90;99.00;;;;;;5102362;28;20052;-58
2023/01/07 05:07:53;;;;;;;7.18;5.45;;;10.90;99.00;;;;;;5085530;28;20029;-58
2023/01/07 05:10:18;;;;;;;6.28;5.68;;;10.90;99.00;;;;;;5086929;28;20036;-58
2023/01/07 05:12:44;;;;;;;6.43;5.55;;;10.90;99.00;;;;;;5085307;28;20032;-58
2023/01/07 05:15:10;;;;;;;6.22;5.63;;;10.90;99.00;;;;;;5085309;28;20050;-58
2023/01/07 05:17:35;;;;;;;6.18;5.15;;;10.90;99.00;;;;;;5085029;28;20141;-58
2023/01/07 05:20:01;;;;;;;6.10;4.97;;;10.80;98.90;;;;;;5085255;28;20025;-58
2023/01/07 05:22:26;;;;;;;5.82;5.22;;;10.90;98.90;;;;;;5085376;28;20029;-58
2023/01/07 05:24:52;;;;;;;5.82;5.22;;;10.90;98.90;;;;;;5102179;28;20464;-58
2023/01/07 05:27:17;;;;;;;6.75;5.65;;;10.90;99.00;;;;;;5085115;28;20437;-58
2023/01/07 05:29:43;;;;;;;6.72;4.72;;;10.90;99.00;;;;;;5086544;28;20039;-59
2023/01/07 05:32:09;;;;;;;10.13;6.57;;;10.90;99.00;;;;;;5086487;28;20368;-58
2023/01/07 05:34:34;;;;;;;8.65;6.45;;;10.90;98.90;;;;;;5086074;28;20052;-58
2023/01/07 05:37:00;;;;;;;8.55;5.78;;;10.80;98.90;;;;;;5101736;28;20368;-58
2023/01/07 05:39:25;;;;;;;6.78;5.90;;;10.90;98.90;;;;;;5100571;28;20047;-58
2023/01/07 05:41:51;;;;;;;7.30;6.50;;;10.80;98.90;;;;;;5101744;28;20036;-58
2023/01/07 05:44:16;;;;;;;6.95;5.70;;;10.80;98.90;;;;;;5086061;28;20393;-58
2023/01/07 05:46:42;;;;;;;6.60;5.85;;;10.80;98.90;;;;;;5101614;28;20044;-58
2023/01/07 05:49:07;;;;;;;8.20;5.93;;;10.80;98.80;;;;;;5086073;28;20035;-58
2023/01/07 05:51:33;;;;;;;5.57;4.97;;;10.80;98.90;;;;;;5084560;28;20036;-58
2023/01/07 05:53:59;;;;;;;6.57;5.63;;;10.80;98.90;;;;;;5101183;28;20135;-58
2023/01/07 05:56:24;;;;;;;6.47;5.88;;;10.80;98.90;;;;;;5086008;28;20159;-58
2023/01/07 05:58:50;;;;;;;6.53;5.60;;;10.80;99.20;;;;;;5085921;28;20120;-58
2023/01/07 06:01:15;;;;;;;7.60;5.60;;;10.80;98.90;;;;;;5085859;28;20024;-58
2023/01/07 06:03:41;;;;;;;6.85;5.72;;;10.80;98.90;;;;;;5085715;28;20028;-58
2023/01/07 06:06:06;;;;;;;5.57;5.07;;;10.80;98.90;;;;;;5084457;28;20028;-58
2023/01/07 06:08:35;;;;;;;5.78;5.18;;;10.80;98.90;;;;;;5085638;28;20479;-58
2023/01/07 06:11:01;;;;;;;6.32;4.90;;;10.80;98.90;;;;;;5101220;28;20029;-58
2023/01/07 06:13:27;;;;;;;7.43;5.28;;;10.80;98.80;;;;;;5085368;28;20067;-58
2023/01/07 06:15:58;;;;;;;5.68;5.05;;;10.80;98.90;;;;;;5101223;28;20054;-58
2023/01/07 06:18:23;;;;;;;5.78;5.28;;;10.80;98.90;;;;;;5083259;28;20040;-58
2023/01/07 06:20:49;;;;;;;5.05;4.50;;;10.80;98.90;;;;;;5086232;28;20021;-58
2023/01/07 06:23:15;;;;;;;6.53;5.28;;;10.80;98.90;;;;;;5084374;28;20100;-58
2023/01/07 06:25:40;;;;;;;6.15;5.18;;;10.80;99.00;;;;;;5084005;28;20469;-58
2023/01/07 06:28:06;;;;;;;6.00;5.38;;;10.70;99.00;;;;;;5085668;28;20056;-58
2023/01/07 06:30:31;;;;;;;5.95;4.95;;;10.70;99.00;;;;;;5086289;28;20372;-58
2023/01/07 06:32:57;;;;;;;5.47;4.93;;;10.70;99.00;;;;;;5100814;28;20065;-58
2023/01/07 06:35:22;;;;;;;5.93;4.93;;;10.70;99.00;;;;;;5083973;28;20058;-58
2023/01/07 06:37:48;;;;;;;5.22;4.70;;;10.70;99.10;;;;;;5085326;28;20044;-58
2023/01/07 06:40:14;;;;;;;5.50;4.90;;;10.70;99.10;;;;;;5100769;28;20108;-58
2023/01/07 06:42:39;;;;;;;5.28;4.75;;;10.70;99.10;;;;;;5085173;28;20028;-58
2023/01/07 06:45:05;;;;;;;5.15;4.65;;;10.70;99.10;;;;;;5100439;28;20112;-58
2023/01/07 06:47:31;;;;;;;5.70;4.65;;;10.70;99.10;;;;;;5100502;28;20043;-58
2023/01/07 06:49:56;;;;;;;6.95;4.93;;;10.70;99.10;;;;;;5083235;28;20028;-58
2023/01/07 06:52:22;;;;;;;6.32;5.22;;;10.70;99.10;;;;;;5100573;28;20043;-58
2023/01/07 06:54:48;;;;;;;5.15;4.65;;;10.70;99.00;;;;;;5100562;28;20076;-58
2023/01/07 06:57:13;;;;;;;5.57;4.97;;;10.70;99.10;;;;;;5085015;28;20024;-57
2023/01/07 06:59:39;;;;;;;5.50;4.82;;;10.70;99.10;;;;;;5100523;28;20032;-58
2023/01/07 07:02:04;;;;;;;6.13;4.50;;;10.70;99.10;;;;;;5083663;28;20044;-58
2023/01/07 07:04:30;;;;;;;5.18;4.68;;;10.70;99.20;;;;;;5083958;28;20396;-58
2023/01/07 07:06:55;;;;;;;5.53;4.75;;;10.70;99.20;;;;;;5083767;28;20028;-58
2023/01/07 07:09:21;;;;;;;5.72;4.63;;;10.70;99.20;;;;;;5100453;28;20134;-58
2023/01/07 07:11:46;;;;;;;5.45;4.93;;;10.70;99.10;;;;;;5100410;28;20028;-58
2023/01/07 07:14:12;;;;;;;4.97;4.47;;;10.70;99.10;;;;;;5085020;28;20032;-58
2023/01/07 07:16:37;;;;;;;5.80;4.88;;;10.60;99.10;;;;;;5085021;28;20020;-58
2023/01/07 07:19:03;;;;;;;5.40;4.60;;;10.60;99.20;;;;;;5084819;28;20055;-58
2023/01/07 07:21:28;;;;;;;4.82;4.30;;;10.60;99.20;;;;;;5083570;28;20036;-58
2023/01/07 07:23:54;;;;;;;4.97;4.45;;;10.60;99.20;;;;;;5100642;28;20050;-58
2023/01/07 07:26:19;;;;;;;5.13;4.63;;;10.60;99.30;;;;;;5084859;28;20107;-58
2023/01/07 07:28:45;;;;;;;5.00;4.50;;;10.60;99.20;;;;;;5100448;28;20082;-58
2023/01/07 07:31:11;;;;;;;6.53;4.13;;;10.60;99.30;;;;;;5084906;28;20032;-58
2023/01/07 07:33:36;;;;;;;5.18;4.32;;;10.60;99.20;;;;;;5084790;28;20051;-58
2023/01/07 07:36:02;;;;;;;4.68;4.22;;;10.60;99.50;;;;;;5083172;28;20363;-58
2023/01/07 07:38:28;;;;;;;4.97;4.20;;;10.60;99.30;;;;;;5083155;28;20512;-58
2023/01/07 07:40:53;;;;;;;5.43;4.13;;;10.60;99.30;;;;;;5083001;28;20017;-58
2023/01/07 07:43:19;;;;;;;6.32;4.55;;;10.60;99.30;;;;;;5083333;28;20041;-58
2023/01/07 07:45:44;;;;;;;5.47;4.22;;;10.60;99.30;;;;;;5100052;28;20052;-58
2023/01/07 07:48:11;;;;;;;5.00;4.50;;;10.60;99.20;;;;;;5084807;28;20031;-58
2023/01/07 07:50:37;;;;;;;4.85;4.40;;;10.60;99.20;;;;;;5100274;28;20025;-58
2023/01/07 07:53:03;;;;;;;5.07;4.60;;;10.60;99.10;;;;;;5083332;28;20124;-58
2023/01/07 07:55:28;;;;;;;5.43;4.60;;;10.60;99.10;;;;;;5099904;28;20024;-58
2023/01/07 07:57:55;;;;;;;4.82;4.32;;;10.60;99.10;;;;;;5100357;28;20128;-58
2023/01/07 08:00:21;;;;;;;5.10;4.45;;;10.60;99.10;;;;;;5083079;28;20032;-58
2023/01/07 08:02:46;;;;;;;4.80;4.28;;;10.60;99.10;;;;;;5084817;28;20091;-58
2023/01/07 08:05:12;;;;;;;4.93;4.45;;;10.50;99.10;;;;;;5087898;28;20456;-58
2023/01/07 08:07:38;;;;;;;5.05;4.20;;;10.60;99.10;;;;;;5103685;28;20031;-58
2023/01/07 08:10:05;;;;;;;5.35;4.78;;;10.50;99.10;;;;;;5086424;28;20434;-58
2023/01/07 08:12:30;;;;;;;5.60;4.85;;;10.50;99.10;;;;;;5087922;28;20028;-58
2023/01/07 08:14:56;;;;;;;5.20;4.70;;;10.50;99.00;;;;;;5087985;28;20420;-58
2023/01/07 08:17:21;;;;;;;5.07;4.43;;;10.60;99.10;;;;;;5103614;28;20028;-58
2023/01/07 08:19:47;;;;;;;5.22;4.45;;;10.60;99.10;;;;;;5103457;28;20415;-58
2023/01/07 08:22:12;;;;;;;5.05;4.55;;;10.50;99.00;;;;;;5088068;28;20024;-58
2023/01/07 08:24:38;;;;;;;5.60;4.43;;;10.50;99.00;;;;;;5103241;28;20380;-58
2023/01/07 08:27:04;;;;;;;4.50;4.10;;;10.50;99.00;;;;;;5087680;28;20025;-58
2023/01/07 08:29:30;;;;;;;4.63;4.22;;;10.50;99.00;;;;;;5103199;28;20029;-58
2023/01/07 08:31:55;;;;;;;4.85;4.35;;;10.50;99.00;;;;;;5087400;28;20024;-58
2023/01/07 08:34:21;;;;;;;4.43;4.03;;;10.50;99.00;;;;;;5103101;28;20060;-58
2023/01/07 08:36:46;;;;;;;5.05;4.22;;;10.50;99.00;;;;;;5087473;28;20048;-58
2023/01/07 08:39:12;;;;;;;4.40;4.00;;;10.50;99.00;;;;;;5087234;28;20036;-57
2023/01/07 08:41:37;;;;;;;5.53;4.05;;;10.60;99.30;;;;;;5087352;28;20050;-58
2023/01/07 08:44:03;;;;;;;4.57;4.07;;;10.50;99.00;;;;;;5102824;28;20092;-58
2023/01/07 08:46:28;;;;;;;5.10;4.60;;;10.50;99.00;;;;;;5102677;28;20389;-58
2023/01/07 08:48:54;;;;;;;5.30;4.35;;;10.60;99.00;;;;;;5102871;28;20452;-58
2023/01/07 08:51:19;;;;;;;5.20;4.32;;;10.60;99.00;;;;;;5087223;28;20037;-58
2023/01/07 08:53:46;;;;;;;4.80;4.10;;;10.60;98.90;;;;;;5102683;28;20074;-57
2023/01/07 08:56:12;;;;;;;6.03;3.92;;;10.60;98.90;;;;;;5102396;28;20037;-58
2023/01/07 08:58:38;;;;;;;6.22;4.70;;;10.60;99.10;;;;;;5086472;28;20130;-58
2023/01/07 09:01:04;;;;;;;5.15;4.63;;;10.60;98.80;;;;;;5099959;28;20032;-58
2023/01/07 09:03:30;;;;;;;5.65;4.40;;;10.60;98.70;;;;;;5100414;28;20039;-58
2023/01/07 09:05:55;;;;;;;5.38;4.13;;;10.60;98.90;;;;;;5082610;28;20025;-58
2023/01/07 09:08:21;;;;;;;4.50;4.10;;;10.60;98.60;;;;;;5097132;28;20070;-58
2023/01/07 09:10:46;;;;;;;10.50;4.85;;;10.60;98.60;;;;;;5084745;28;20036;-58
2023/01/07 09:13:12;;;;;;;5.07;4.53;;;10.60;98.40;;;;;;5113713;28;20025;-58
2023/01/07 09:15:37;;;;;;;9.48;4.68;;;10.60;98.40;;;;;;5091435;28;20518;-58
2023/01/07 09:18:03;;;;;;;7.93;5.78;;;10.60;98.30;;;;;;5080995;28;20039;-58
2023/01/07 09:20:29;;;;;;;35.50;8.65;;;10.70;98.30;;;;;;5073978;28;20377;-58
2023/01/07 09:22:55;;;;;;;26.63;6.70;;;10.60;98.20;;;;;;5092020;28;20051;-58
2023/01/07 09:25:20;;;;;;;25.25;6.25;;;10.70;98.30;;;;;;5080896;28;20108;-58
2023/01/07 09:27:46;;;;;;;30.65;7.30;;;10.70;98.30;;;;;;5077092;28;20028;-58
2023/01/07 09:30:11;;;;;;;25.63;6.70;;;10.70;98.30;;;;;;5082708;28;20407;-58
2023/01/07 09:32:37;;;;;;;32.97;8.05;;;10.70;98.30;;;;;;5098736;28;20041;-58
2023/01/07 09:35:04;;;;;;;49.30;7.72;;;10.70;98.30;;;;;;5082738;28;20089;-58
2023/01/07 09:37:29;;;;;;;44.92;10.48;;;10.80;98.30;;;;;;5083647;28;20020;-58
2023/01/07 09:39:55;;;;;;;93.07;12.65;;;10.80;98.30;;;;;;5073882;28;20039;-58
2023/01/07 09:42:44;;;;;;;249.93;23.88;;;10.80;98.30;;;;;;5082710;28;20081;-57
2023/01/07 09:45:16;;;;;;;110.75;14.20;;;10.80;98.30;;;;;;5076897;28;20029;-58
2023/01/07 09:47:43;;;;;;;124.38;14.93;;;10.80;98.30;;;;;;5078575;28;20064;-58
2023/01/07 09:50:30;;;;;;;101.25;15.20;;;10.90;98.20;;;;;;5079868;28;20119;-58
2023/01/07 09:52:58;;;;;;;105.70;14.57;;;11.00;98.20;;;;;;5080772;28;20033;-57
2023/01/07 09:55:30;;;;;;;95.53;13.32;;;11.00;98.20;;;;;;5082506;28;20484;-57
2023/01/07 09:57:56;;;;;;;94.40;13.25;;;11.00;97.90;;;;;;5077921;28;20097;-58
2023/01/07 10:00:22;;;;;;;116.10;15.07;;;11.10;97.70;;;;;;5077989;28;20100;-58
2023/01/07 10:03:07;;;;;;;110.72;15.25;;;11.10;97.60;;;;;;5067441;28;20025;-58
2023/01/07 10:05:44;;;;;;;142.93;18.73;;;11.10;97.70;;;;;;5079976;28;20088;-58
2023/01/07 10:08:18;;;;;;;211.10;25.75;;;11.10;97.80;;;;;;5066075;28;20032;-58
2023/01/07 10:10:54;;;;;;;127.82;18.83;;;11.20;97.80;;;;;;5081097;28;20047;-58
2023/01/07 10:13:40;;;;;;;153.88;19.13;;;11.20;97.90;;;;;;5065768;28;20062;-58
2023/01/07 10:16:07;;;;;;;153.63;19.40;;;11.20;97.70;;;;;;5072443;28;20033;-58
2023/01/07 10:18:57;;;;;;;140.20;18.38;;;11.30;97.70;;;;;;5083594;28;20124;-58
2023/01/07 10:21:24;;;;;;;140.10;18.15;;;11.20;97.50;;;;;;5073774;28;20017;-58
2023/01/07 10:24:02;;;;;;;162.95;18.55;;;11.30;97.60;;;;;;5077645;28;20508;-58
2023/01/07 10:26:41;;;;;;;141.55;17.77;;;11.30;97.50;;;;;;5063356;28;20035;-58
2023/01/07 10:29:12;;;;;;;134.45;18.17;;;11.30;97.50;;;;;;5081840;28;20032;-58
2023/01/07 10:31:38;;;;;;;174.02;20.20;;;11.30;97.40;;;;;;5079794;28;20040;-58
2023/01/07 10:34:11;;;;;;;126.22;18.15;;;11.30;97.40;;;;;;5078177;28;20080;-58
2023/01/07 10:36:39;;;;;;;171.70;22.90;;;11.30;97.60;;;;;;5067705;28;20032;-58
2023/01/07 10:39:32;;;;;;;206.55;24.48;;;11.30;97.80;;;;;;5090689;28;20033;-58
2023/01/07 10:42:13;;;;;;;178.73;20.80;;;11.30;97.90;;;;;;5080896;28;20027;-58
2023/01/07 10:45:10;;;;;;;287.90;32.15;;;11.30;97.70;;;;;;5080190;28;20032;-58
2023/01/07 10:47:42;;;;;;;200.07;24.13;;;11.40;97.70;;;;;;5095655;28;20103;-58
2023/01/07 10:50:41;;;;;;;221.63;26.65;;;11.40;97.50;;;;;;5074756;28;20037;-58
2023/01/07 10:53:17;;;;;;;214.75;25.88;;;11.40;97.60;;;;;;5085043;28;20067;-58
2023/01/07 10:56:13;;;;;;;245.77;28.40;;;11.50;97.50;;;;;;5080169;28;20122;-60
2023/01/07 10:58:40;;;;;;;265.92;29.75;;;11.50;97.50;;;;;;5065842;28;20089;-57
2023/01/07 11:01:06;;;;;;;225.10;27.67;;;11.50;97.40;;;;;;5066808;28;20028;-58
2023/01/07 11:03:32;;;;;;;246.20;31.15;;;11.50;97.20;;;;;;5080830;28;20115;-57
2023/01/07 11:06:01;;;;;;;251.10;29.45;;;11.50;97.20;;;;;;5064958;28;21456;-57
2023/01/07 11:08:40;;;;;;;220.68;28.13;;;11.40;97.10;;;;;;5089516;28;20041;-57
2023/01/07 11:11:06;;;;;;;226.82;26.63;;;11.40;97.20;;;;;;5083691;28;20059;-58
2023/01/07 11:13:33;;;;;;;231.27;27.25;;;11.40;97.30;;;;;;5065642;28;20036;-58
2023/01/07 11:16:12;;;;;;;278.83;33.47;;;11.40;97.30;;;;;;5070227;28;20208;-57
2023/01/07 11:18:40;;;;;;;299.45;33.42;;;11.40;97.40;;;;;;5079663;28;20091;-57
2023/01/07 11:21:05;;;;;;;246.93;31.55;;;11.40;97.40;;;;;;5079725;28;20028;-58
2023/01/07 11:23:38;;;;;;;369.48;41.85;;;11.40;97.40;;;;;;5079421;28;20025;-57
2023/01/07 11:26:16;;;;;;;272.33;32.83;;;11.40;97.50;;;;;;5081291;28;20025;-57
2023/01/07 11:29:22;;;;;;;225.25;29.17;;;11.40;97.50;;;;;;5084337;28;20120;-57
2023/01/07 11:31:54;;;;;;;231.65;29.77;;;11.40;97.40;;;;;;5073534;28;20029;-57
2023/01/07 11:34:27;;;;;;;258.58;30.45;;;11.40;97.40;;;;;;5079506;28;20048;-57
2023/01/07 11:36:52;;;;;;;228.63;29.05;;;11.40;97.30;;;;;;5088081;28;20040;-57
2023/01/07 11:39:20;;;;;;;218.95;28.23;;;11.40;97.50;;;;;;5084721;28;20032;-57
2023/01/07 11:41:54;;;;;;;306.33;32.97;;;11.40;97.20;;;;;;5086551;28;20021;-58
2023/01/07 11:44:19;;;;;;;233.70;28.60;;;11.40;97.10;;;;;;5083913;28;20062;-57
2023/01/07 11:46:45;;;;;;;223.60;29.05;;;11.40;97.10;;;;;;5091170;28;20056;-57
2023/01/07 11:49:25;;;;;;;216.68;26.20;;;11.40;97.10;;;;;;5103059;28;20101;-57
2023/01/07 11:51:51;;;;;;;205.82;23.55;;;11.40;97.00;;;;;;5076506;28;20114;-57
2023/01/07 11:54:21;;;;;;;145.65;23.15;;;11.40;96.80;;;;;;5083265;28;20037;-57
2023/01/07 11:56:47;;;;;;;213.70;26.63;;;11.40;96.70;;;;;;5094758;28;20021;-57
2023/01/07 11:59:19;;;;;;;216.35;26.40;;;11.40;96.60;;;;;;5067691;28;20040;-57
2023/01/07 12:01:52;;;;;;;227.23;28.15;;;11.40;96.70;;;;;;5070879;28;20107;-58
2023/01/07 12:04:33;;;;;;;201.35;25.40;;;11.40;96.70;;;;;;5090722;28;20079;-57
2023/01/07 12:07:20;;;;;;;183.63;25.58;;;11.40;96.80;;;;;;5083271;28;20051;-57
2023/01/07 12:09:46;;;;;;;217.00;27.55;;;11.40;96.70;;;;;;5084886;28;20108;-57
2023/01/07 12:12:38;;;;;;;220.13;26.38;;;11.40;96.70;;;;;;5085146;28;20032;-57
2023/01/07 12:15:20;;;;;;;165.50;23.60;;;11.40;96.70;;;;;;5100615;28;20028;-57
2023/01/07 12:17:53;;;;;;;189.02;27.02;;;11.40;96.60;;;;;;5067390;28;20045;-57
2023/01/07 12:21:05;;;;;;;190.00;26.27;;;11.40;96.60;;;;;;5086714;28;20029;-57
2023/01/07 12:24:06;;;;;;;188.80;24.17;;;11.30;96.70;;;;;;5085707;28;20033;-58
2023/01/07 12:26:37;;;;;;;228.48;24.95;;;11.30;96.70;;;;;;5076985;28;20416;-57
2023/01/07 12:29:14;;;;;;;182.77;23.13;;;11.30;96.70;;;;;;5103005;28;20024;-57
2023/01/07 12:32:04;;;;;;;283.15;33.33;;;11.30;96.70;;;;;;5090887;28;20040;-57
2023/01/07 12:34:34;;;;;;;258.17;26.90;;;11.30;96.70;;;;;;5083616;28;20112;-57
2023/01/07 12:37:01;;;;;;;204.57;25.75;;;11.40;96.70;;;;;;5065892;28;20060;-57
2023/01/07 12:39:33;;;;;;;219.23;26.55;;;11.40;96.80;;;;;;5090777;28;20037;-57
2023/01/07 12:42:19;;;;;;;203.93;23.55;;;11.40;96.50;;;;;;5088040;28;20029;-58
2023/01/07 12:44:50;;;;;;;155.60;22.30;;;11.40;96.50;;;;;;5109476;28;20045;-58
2023/01/07 12:47:19;;;;;;;210.35;23.95;;;11.40;96.50;;;;;;5080810;28;20111;-57
2023/01/07 12:49:49;;;;;;;180.65;21.90;;;11.40;96.40;;;;;;5064872;28;20032;-58